createdAt,value
2017-09-27T00:01:37.743Z,100488.22
2017-09-27T00:04:03.971Z,100483.92
2017-09-27T00:06:30.238Z,100487.88
2017-09-27T00:08:56.461Z,100488.47
2017-09-27T00:11:22.696Z,100487.69
2017-09-27T00:13:48.957Z,100491.58
2017-09-27T00:16:15.192Z,100492.45
2017-09-27T00:18:41.443Z,100497.73
2017-09-27T00:21:07.670Z,100494.74
2017-09-27T00:23:33.885Z,100490.39
2017-09-27T00:26:00.240Z,100495.36
2017-09-27T00:28:26.460Z,100496.41
2017-09-27T00:30:52.696Z,100502.09
2017-09-27T00:33:18.936Z,100499.39
2017-09-27T00:35:45.174Z,100507.34
2017-09-27T00:38:11.432Z,100506.93
2017-09-27T00:40:37.711Z,100505.33
2017-09-27T00:43:03.949Z,100504.51
2017-09-27T00:45:30.162Z,100506.80
2017-09-27T00:47:56.432Z,100503.98
2017-09-27T00:50:22.645Z,100507.92
2017-09-27T00:52:48.868Z,100510.53
2017-09-27T00:55:15.845Z,100510.56
2017-09-27T00:57:42.078Z,100510.98
2017-09-27T01:00:08.298Z,100512.84
2017-09-27T01:02:34.643Z,100514.49
2017-09-27T01:05:00.907Z,100517.11
2017-09-27T01:07:27.136Z,100517.47
2017-09-27T01:09:53.398Z,100517.45
2017-09-27T01:12:19.619Z,100514.22
2017-09-27T01:14:45.844Z,100520.11
2017-09-27T01:17:12.148Z,100522.33
2017-09-27T01:19:38.364Z,100517.39
2017-09-27T01:22:04.607Z,100528.66
2017-09-27T01:24:30.862Z,100526.03
2017-09-27T01:26:57.094Z,100528.89
2017-09-27T01:29:23.314Z,100531.44
2017-09-27T01:31:49.580Z,100539.46
2017-09-27T01:34:16.046Z,100541.92
2017-09-27T01:36:42.277Z,100543.11
2017-09-27T01:39:08.578Z,100540.90
2017-09-27T01:41:34.802Z,100544.77
2017-09-27T01:44:01.038Z,100539.13
2017-09-27T01:46:27.344Z,100539.94
2017-09-27T01:48:53.575Z,100545.10
2017-09-27T01:51:19.808Z,100545.14
2017-09-27T01:53:46.085Z,100541.06
2017-09-27T01:56:12.317Z,100548.53
2017-09-27T01:58:38.553Z,100553.53
2017-09-27T02:01:04.847Z,100560.19
2017-09-27T02:03:31.073Z,100555.30
2017-09-27T02:05:57.294Z,100557.19
2017-09-27T02:08:23.569Z,100560.13
2017-09-27T02:10:49.812Z,100561.08
2017-09-27T02:13:16.034Z,100565.08
2017-09-27T02:15:42.342Z,100564.77
2017-09-27T02:18:08.574Z,100567.39
2017-09-27T02:20:34.804Z,100572.64
2017-09-27T02:23:01.099Z,100570.05
2017-09-27T02:25:27.330Z,100573.52
2017-09-27T02:27:53.550Z,100578.53
2017-09-27T02:30:19.839Z,100573.58
2017-09-27T02:32:46.051Z,100574.38
2017-09-27T02:35:12.270Z,100574.98
2017-09-27T02:37:38.544Z,100571.79
2017-09-27T02:40:04.791Z,100568.33
2017-09-27T02:42:31.041Z,100567.59
2017-09-27T02:44:57.316Z,100571.98
2017-09-27T02:47:23.564Z,100569.23
2017-09-27T02:49:49.808Z,100567.13
2017-09-27T02:52:16.087Z,100571.30
2017-09-27T02:54:42.316Z,100574.52
2017-09-27T02:57:08.542Z,100587.90
2017-09-27T02:59:34.848Z,100580.50
2017-09-27T03:02:01.501Z,100589.34
2017-09-27T03:04:27.740Z,100582.67
2017-09-27T03:06:54.162Z,100583.33
2017-09-27T03:09:20.390Z,100583.14
2017-09-27T03:11:46.608Z,100591.30
2017-09-27T03:14:12.888Z,100590.22
2017-09-27T03:16:39.127Z,100590.81
2017-09-27T03:19:05.358Z,100595.77
2017-09-27T03:21:31.629Z,100593.34
2017-09-27T03:23:57.871Z,100595.16
2017-09-27T03:26:24.097Z,100591.81
2017-09-27T03:28:50.392Z,100591.42
2017-09-27T03:31:16.632Z,100593.16
2017-09-27T03:33:42.879Z,100589.45
2017-09-27T03:36:09.152Z,100596.23
2017-09-27T03:38:35.374Z,100597.89
2017-09-27T03:41:01.600Z,100596.37
2017-09-27T03:43:27.897Z,100591.41
2017-09-27T03:45:54.123Z,100591.47
2017-09-27T03:48:20.363Z,100594.95
2017-09-27T03:50:46.647Z,100598.20
2017-09-27T03:53:12.903Z,100599.56
2017-09-27T03:55:39.123Z,100597.86
2017-09-27T03:58:05.393Z,100603.61
2017-09-27T04:00:31.623Z,100603.96
2017-09-27T04:02:57.849Z,100603.67
2017-09-27T04:05:24.127Z,100609.61
2017-09-27T04:07:50.366Z,100607.84
2017-09-27T04:10:16.614Z,100607.73
2017-09-27T04:12:42.882Z,100614.19
2017-09-27T04:15:09.109Z,100612.34
2017-09-27T04:17:35.337Z,100621.84
2017-09-27T04:20:01.637Z,100634.36
2017-09-27T04:22:27.870Z,100637.51
2017-09-27T04:24:54.110Z,100650.59
2017-09-27T04:27:20.373Z,100660.41
2017-09-27T04:29:50.628Z,100658.95
2017-09-27T04:32:16.875Z,100653.94
2017-09-27T04:34:43.155Z,100647.70
2017-09-27T04:37:09.369Z,100650.47
2017-09-27T04:39:35.586Z,100659.45
2017-09-27T04:42:01.872Z,100660.09
2017-09-27T04:44:28.124Z,100666.73
2017-09-27T04:46:54.376Z,100669.75
2017-09-27T04:49:20.683Z,100672.23
2017-09-27T04:51:46.931Z,100676.45
2017-09-27T04:54:13.164Z,100680.17
2017-09-27T04:56:39.484Z,100676.91
2017-09-27T04:59:05.719Z,100683.72
2017-09-27T05:01:31.952Z,100687.77
2017-09-27T05:03:58.262Z,100683.75
2017-09-27T05:06:24.493Z,100689.74
2017-09-27T05:08:50.732Z,100694.73
2017-09-27T05:11:17.052Z,100692.64
2017-09-27T05:13:43.284Z,100699.34
2017-09-27T05:16:09.530Z,100704.36
2017-09-27T05:18:35.808Z,100701.36
2017-09-27T05:21:02.035Z,100706.38
2017-09-27T05:23:28.295Z,100699.84
2017-09-27T05:25:54.571Z,100700.53
2017-09-27T05:28:20.800Z,100706.77
2017-09-27T05:30:47.028Z,100705.34
2017-09-27T05:33:13.331Z,100706.11
2017-09-27T05:35:39.603Z,100710.93
2017-09-27T05:38:05.851Z,100712.19
2017-09-27T05:40:32.138Z,100713.00
2017-09-27T05:42:58.389Z,100716.98
2017-09-27T05:45:24.614Z,100716.94
2017-09-27T05:47:50.897Z,100718.94
2017-09-27T05:50:17.148Z,100716.24
2017-09-27T05:52:43.382Z,100726.08
2017-09-27T05:55:09.679Z,100724.55
2017-09-27T05:57:35.919Z,100732.94
2017-09-27T06:00:02.174Z,100737.98
2017-09-27T06:02:28.473Z,100745.34
2017-09-27T06:04:54.710Z,100741.97
2017-09-27T06:07:20.945Z,100747.81
2017-09-27T06:09:47.242Z,100747.88
2017-09-27T06:12:13.485Z,100750.05
2017-09-27T06:14:39.715Z,100750.89
2017-09-27T06:17:05.983Z,100746.57
2017-09-27T06:19:32.250Z,100758.77
2017-09-27T06:21:58.674Z,100756.69
2017-09-27T06:24:24.944Z,100756.02
2017-09-27T06:26:51.213Z,100755.02
2017-09-27T06:29:17.472Z,100760.38
2017-09-27T06:31:43.781Z,100768.45
2017-09-27T06:34:10.034Z,100771.09
2017-09-27T06:36:36.271Z,100773.08
2017-09-27T06:39:02.603Z,100771.66
2017-09-27T06:41:28.831Z,100776.80
2017-09-27T06:43:55.083Z,100784.48
2017-09-27T06:46:21.384Z,100782.20
2017-09-27T06:48:47.624Z,100790.33
2017-09-27T06:51:13.867Z,100791.11
2017-09-27T06:53:40.159Z,100794.75
2017-09-27T06:56:06.410Z,100806.97
2017-09-27T06:58:32.664Z,100807.34
2017-09-27T07:00:58.992Z,100809.05
2017-09-27T07:03:25.239Z,100810.86
2017-09-27T07:05:51.471Z,100817.98
2017-09-27T07:08:17.725Z,100816.80
2017-09-27T07:10:43.958Z,100821.48
2017-09-27T07:13:10.201Z,100817.05
2017-09-27T07:15:36.481Z,100813.42
2017-09-27T07:18:02.716Z,100810.70
2017-09-27T07:20:28.946Z,100815.18
2017-09-27T07:22:55.213Z,100817.38
2017-09-27T07:25:21.461Z,100815.42
2017-09-27T07:27:47.854Z,100825.22
2017-09-27T07:30:14.132Z,100836.47
2017-09-27T07:32:40.373Z,100840.97
2017-09-27T07:35:06.606Z,100835.55
2017-09-27T07:37:32.886Z,100828.64
2017-09-27T07:39:59.106Z,100832.77
2017-09-27T07:42:25.345Z,100836.26
2017-09-27T07:44:51.744Z,100834.50
2017-09-27T07:47:17.995Z,100837.39
2017-09-27T07:49:44.263Z,100838.56
2017-09-27T07:52:10.533Z,100850.85
2017-09-27T07:54:36.761Z,100841.89
2017-09-27T07:57:03.020Z,100839.27
2017-09-27T07:59:29.293Z,100839.34
2017-09-27T08:01:55.531Z,100842.01
2017-09-27T08:04:21.759Z,100846.13
2017-09-27T08:06:48.037Z,100850.33
2017-09-27T08:09:14.297Z,100860.82
2017-09-27T08:11:40.557Z,100863.06
2017-09-27T08:14:06.844Z,100858.44
2017-09-27T08:16:33.090Z,100862.73
2017-09-27T08:18:59.352Z,100858.44
2017-09-27T08:21:25.652Z,100867.80
2017-09-27T08:23:51.944Z,100874.41
2017-09-27T08:26:18.182Z,100872.97
2017-09-27T08:28:44.452Z,100871.73
2017-09-27T08:31:10.704Z,100870.90
2017-09-27T08:33:36.967Z,100880.05
2017-09-27T08:36:03.247Z,100875.37
2017-09-27T08:38:29.482Z,100880.91
2017-09-27T08:40:55.760Z,100880.83
2017-09-27T08:43:22.085Z,100883.08
2017-09-27T08:45:48.336Z,100889.80
2017-09-27T08:48:14.581Z,100895.58
2017-09-27T08:50:40.876Z,100897.92
2017-09-27T08:53:07.102Z,100897.30
2017-09-27T08:55:33.350Z,100899.73
2017-09-27T08:57:59.655Z,100904.56
2017-09-27T09:00:25.900Z,100908.05
2017-09-27T09:02:52.140Z,100902.87
2017-09-27T09:05:18.410Z,100909.28
2017-09-27T09:07:44.657Z,100910.00
2017-09-27T09:10:10.892Z,100909.14
2017-09-27T09:12:37.166Z,100918.06
2017-09-27T09:15:03.399Z,100907.27
2017-09-27T09:17:29.688Z,100911.36
2017-09-27T09:19:55.968Z,100908.39
2017-09-27T09:22:22.208Z,100911.40
2017-09-27T09:24:48.426Z,100911.20
2017-09-27T09:27:14.691Z,100914.80
2017-09-27T09:29:40.929Z,100914.20
2017-09-27T09:32:07.179Z,100918.89
2017-09-27T09:34:33.459Z,100915.67
2017-09-27T09:36:59.719Z,100910.68
2017-09-27T09:39:25.949Z,100911.62
2017-09-27T09:41:52.230Z,100913.42
2017-09-27T09:44:18.470Z,100914.51
2017-09-27T09:46:44.703Z,100917.50
2017-09-27T09:49:10.965Z,100919.78
2017-09-27T09:51:37.191Z,100911.39
2017-09-27T09:54:03.431Z,100908.00
2017-09-27T09:56:29.696Z,100917.50
2017-09-27T09:58:55.935Z,100917.27
2017-09-27T10:01:22.176Z,100922.85
2017-09-27T10:03:48.442Z,100914.13
2017-09-27T10:06:14.689Z,100915.81
2017-09-27T10:08:40.945Z,100914.30
2017-09-27T10:11:07.217Z,100915.45
2017-09-27T10:13:33.447Z,100921.56
2017-09-27T10:15:59.677Z,100923.61
2017-09-27T10:18:25.960Z,100930.78
2017-09-27T10:20:52.227Z,100932.99
2017-09-27T10:23:18.480Z,100930.28
2017-09-27T10:25:44.772Z,100937.22
2017-09-27T10:28:11.027Z,100940.42
2017-09-27T10:30:37.297Z,100939.48
2017-09-27T10:33:03.572Z,100932.55
2017-09-27T10:35:29.828Z,100934.20
2017-09-27T10:37:56.098Z,100938.16
2017-09-27T10:40:22.415Z,100939.79
2017-09-27T10:42:48.661Z,100937.89
2017-09-27T10:45:14.901Z,100939.09
2017-09-27T10:47:41.208Z,100941.52
2017-09-27T10:50:07.476Z,100939.71
2017-09-27T10:52:33.719Z,100941.66
2017-09-27T10:55:00.062Z,100942.63
2017-09-27T10:57:26.490Z,100949.02
2017-09-27T10:59:52.735Z,100944.00
2017-09-27T11:02:19.050Z,100950.09
2017-09-27T11:04:45.330Z,100948.74
2017-09-27T11:07:11.549Z,100945.33
2017-09-27T11:09:37.821Z,100943.78
2017-09-27T11:12:04.066Z,100944.14
2017-09-27T11:14:30.307Z,100949.29
2017-09-27T11:16:56.636Z,100944.02
2017-09-27T11:19:22.876Z,100947.13
2017-09-27T11:21:49.132Z,100948.29
2017-09-27T11:24:15.458Z,100951.47
2017-09-27T11:26:41.686Z,100949.70
2017-09-27T11:29:07.939Z,100951.81
2017-09-27T11:31:34.209Z,100948.16
2017-09-27T11:34:00.442Z,100954.14
2017-09-27T11:36:26.699Z,100954.66
2017-09-27T11:38:52.994Z,100955.63
2017-09-27T11:41:19.233Z,100957.16
2017-09-27T11:43:45.494Z,100963.30
2017-09-27T11:46:11.770Z,100935.31
2017-09-27T11:48:38.013Z,100966.19
2017-09-27T11:51:04.243Z,100966.30
2017-09-27T11:53:30.563Z,100964.48
2017-09-27T11:55:56.798Z,100960.13
2017-09-27T11:58:23.020Z,100960.73
2017-09-27T12:00:49.305Z,100964.17
2017-09-27T12:03:15.536Z,100959.14
2017-09-27T12:05:41.781Z,100964.19
2017-09-27T12:08:08.014Z,100958.80
2017-09-27T12:10:34.236Z,100963.12
2017-09-27T12:13:00.483Z,100963.72
2017-09-27T12:15:26.728Z,100962.76
2017-09-27T12:17:52.980Z,100965.34
2017-09-27T12:20:19.225Z,100956.64
2017-09-27T12:22:45.471Z,100961.98
2017-09-27T12:25:11.689Z,100957.26
2017-09-27T12:27:37.931Z,100959.63
2017-09-27T12:30:04.176Z,100957.07
2017-09-27T12:32:30.417Z,100956.50
2017-09-27T12:34:56.716Z,100951.14
2017-09-27T12:37:22.945Z,100952.08
2017-09-27T12:39:49.182Z,100956.13
2017-09-27T12:42:15.454Z,100955.72
2017-09-27T12:44:41.688Z,100964.64
2017-09-27T12:47:07.918Z,100963.03
2017-09-27T12:49:34.188Z,100967.65
2017-09-27T12:52:00.421Z,100964.98
2017-09-27T12:54:26.671Z,100962.06
2017-09-27T12:56:52.940Z,100964.20
2017-09-27T12:59:19.185Z,100960.62
2017-09-27T13:01:45.473Z,100961.08
2017-09-27T13:04:11.752Z,100958.64
2017-09-27T13:06:37.991Z,100963.00
2017-09-27T13:09:04.212Z,100961.79
2017-09-27T13:11:30.491Z,100957.48
2017-09-27T13:13:56.722Z,100965.39
2017-09-27T13:16:22.950Z,100965.42
2017-09-27T13:18:49.222Z,100954.88
2017-09-27T13:21:15.482Z,100961.90
2017-09-27T13:23:41.730Z,100961.83
2017-09-27T13:26:08.022Z,100956.66
2017-09-27T13:28:34.250Z,100964.27
2017-09-27T13:31:00.500Z,100962.09
2017-09-27T13:33:26.788Z,100962.09
2017-09-27T13:35:53.033Z,100963.11
2017-09-27T13:38:19.260Z,100968.55
2017-09-27T13:40:45.583Z,100969.94
2017-09-27T13:43:11.820Z,100967.01
2017-09-27T13:45:38.064Z,100968.31
2017-09-27T13:48:04.349Z,100971.80
2017-09-27T13:50:30.608Z,100967.70
2017-09-27T13:52:56.844Z,100968.80
2017-09-27T13:55:23.113Z,100971.02
2017-09-27T13:57:49.337Z,100966.14
2017-09-27T14:00:15.589Z,100968.92
2017-09-27T14:02:41.866Z,100966.52
2017-09-27T14:05:08.099Z,100971.17
2017-09-27T14:07:34.314Z,100970.38
2017-09-27T14:10:00.597Z,100974.92
2017-09-27T14:12:26.832Z,100976.34
2017-09-27T14:14:53.107Z,100975.14
2017-09-27T14:17:19.332Z,100977.70
2017-09-27T14:19:45.578Z,100971.13
2017-09-27T14:22:11.861Z,100971.70
2017-09-27T14:24:38.111Z,100973.57
2017-09-27T14:27:04.363Z,100985.66
2017-09-27T14:29:30.633Z,100989.25
2017-09-27T14:31:56.881Z,100994.66
2017-09-27T14:34:23.133Z,100991.31
2017-09-27T14:36:49.414Z,100993.30
2017-09-27T14:39:15.661Z,100992.59
2017-09-27T14:41:41.902Z,100998.28
2017-09-27T14:44:08.172Z,100999.91
2017-09-27T14:46:34.397Z,100993.86
2017-09-27T14:49:00.628Z,100999.28
2017-09-27T14:51:26.901Z,100992.78
2017-09-27T14:53:53.147Z,101001.41
2017-09-27T14:56:19.392Z,101001.88
2017-09-27T14:58:45.662Z,101004.88
2017-09-27T15:01:11.897Z,101001.92
2017-09-27T15:03:38.135Z,101002.67
2017-09-27T15:06:04.434Z,101004.35
2017-09-27T15:08:30.669Z,101002.36
2017-09-27T15:10:56.891Z,101002.48
2017-09-27T15:13:23.185Z,101006.72
2017-09-27T15:15:49.414Z,101014.92
2017-09-27T15:18:15.654Z,101011.88
2017-09-27T15:20:41.953Z,101011.50
2017-09-27T15:23:08.199Z,101008.00
2017-09-27T15:25:34.451Z,101009.66
2017-09-27T15:28:00.701Z,101010.30
2017-09-27T15:30:26.924Z,101016.75
2017-09-27T15:32:53.139Z,101018.91
2017-09-27T15:35:19.445Z,101021.94
2017-09-27T15:37:45.989Z,101024.87
2017-09-27T15:40:12.220Z,101025.19
2017-09-27T15:42:38.492Z,101028.69
2017-09-27T15:45:04.879Z,101031.61
2017-09-27T15:47:31.115Z,101032.00
2017-09-27T15:49:57.550Z,101024.53
2017-09-27T15:52:23.788Z,101032.85
2017-09-27T15:54:50.013Z,101033.48
2017-09-27T15:57:16.271Z,101028.91
2017-09-27T15:59:42.502Z,101029.42
2017-09-27T16:02:08.756Z,101035.55
2017-09-27T16:04:35.067Z,101033.47
2017-09-27T16:07:01.304Z,101032.02
2017-09-27T16:09:27.527Z,101030.78
2017-09-27T16:11:53.809Z,101032.12
2017-09-27T16:14:20.039Z,101036.06
2017-09-27T16:16:46.262Z,101038.64
2017-09-27T16:19:12.525Z,101036.06
2017-09-27T16:21:38.763Z,101037.00
2017-09-27T16:24:05.000Z,101042.50
2017-09-27T16:26:31.253Z,101044.78
2017-09-27T16:28:57.525Z,101037.18
2017-09-27T16:31:23.756Z,101046.31
2017-09-27T16:33:50.014Z,101051.01
2017-09-27T16:36:16.230Z,101045.70
2017-09-27T16:38:42.450Z,101049.75
2017-09-27T16:41:08.708Z,101041.76
2017-09-27T16:43:34.943Z,101046.23
2017-09-27T16:46:01.177Z,101055.11
2017-09-27T16:48:27.429Z,101055.95
2017-09-27T16:50:53.700Z,101055.11
2017-09-27T16:53:19.953Z,101053.77
2017-09-27T16:55:46.215Z,101058.56
2017-09-27T16:58:12.443Z,101063.20
2017-09-27T17:00:38.664Z,101063.41
2017-09-27T17:03:04.963Z,101067.88
2017-09-27T17:05:31.182Z,101064.36
2017-09-27T17:07:57.471Z,101062.41
2017-09-27T17:10:23.743Z,101063.34
2017-09-27T17:12:49.964Z,101067.28
2017-09-27T17:15:16.169Z,101077.33
2017-09-27T17:17:42.417Z,101073.19
2017-09-27T17:20:08.645Z,101074.52
2017-09-27T17:22:34.883Z,101078.67
2017-09-27T17:25:01.162Z,101077.74
2017-09-27T17:27:27.408Z,101083.85
2017-09-27T17:29:53.619Z,101084.17
2017-09-27T17:32:19.966Z,101077.23
2017-09-27T17:34:46.202Z,101077.22
2017-09-27T17:37:12.428Z,101085.01
2017-09-27T17:39:38.709Z,101080.66
2017-09-27T17:42:04.941Z,101082.83
2017-09-27T17:44:31.179Z,101089.05
2017-09-27T17:46:57.466Z,101096.44
2017-09-27T17:49:23.672Z,101099.55
2017-09-27T17:51:49.897Z,101098.81
2017-09-27T17:54:16.187Z,101103.05
2017-09-27T17:56:42.405Z,101095.73
2017-09-27T17:59:08.636Z,101098.61
2017-09-27T18:01:34.921Z,101100.77
2017-09-27T18:04:01.148Z,101101.91
2017-09-27T18:06:27.366Z,101105.13
2017-09-27T18:08:53.653Z,101109.08
2017-09-27T18:11:19.876Z,101112.92
2017-09-27T18:13:46.092Z,101114.38
2017-09-27T18:16:12.359Z,101112.51
2017-09-27T18:18:38.574Z,101117.05
2017-09-27T18:21:04.793Z,101122.34
2017-09-27T18:23:31.045Z,101130.45
2017-09-27T18:25:57.278Z,101125.88
2017-09-27T18:28:23.486Z,101130.02
2017-09-27T18:30:49.768Z,101124.71
2017-09-27T18:33:15.985Z,101125.95
2017-09-27T18:35:42.219Z,101135.36
2017-09-27T18:38:08.504Z,101137.61
2017-09-27T18:40:34.742Z,101134.36
2017-09-27T18:43:00.984Z,101122.05
2017-09-27T18:45:27.383Z,101129.52
2017-09-27T18:47:53.621Z,101133.86
2017-09-27T18:50:19.830Z,101131.57
2017-09-27T18:52:46.089Z,101135.53
2017-09-27T18:55:12.305Z,101128.58
2017-09-27T18:57:38.540Z,101132.50
2017-09-27T19:00:04.842Z,101129.39
2017-09-27T19:02:31.073Z,101127.52
2017-09-27T19:04:57.315Z,101122.25
2017-09-27T19:07:23.606Z,101122.03
2017-09-27T19:09:49.933Z,101123.28
2017-09-27T19:12:16.175Z,101121.02
2017-09-27T19:14:42.438Z,101119.14
2017-09-27T19:17:08.668Z,101120.27
2017-09-27T19:19:35.769Z,101117.67
2017-09-27T19:22:02.027Z,101110.73
2017-09-27T19:24:28.243Z,101114.45
2017-09-27T19:26:54.483Z,101111.06
2017-09-27T19:29:20.750Z,101120.17
2017-09-27T19:31:47.003Z,101115.71
2017-09-27T19:34:13.223Z,101107.94
2017-09-27T19:36:39.465Z,101112.59
2017-09-27T19:39:05.691Z,101108.96
2017-09-27T19:41:31.929Z,101108.97
2017-09-27T19:43:58.195Z,101113.95
2017-09-27T19:46:24.402Z,101102.41
2017-09-27T19:48:50.627Z,101112.48
2017-09-27T19:51:16.890Z,101116.00
2017-09-27T19:53:43.100Z,101121.47
2017-09-27T19:56:09.309Z,101108.05
2017-09-27T19:58:35.581Z,101116.95
2017-09-27T20:01:01.805Z,101122.96
2017-09-27T20:03:28.028Z,101120.07
2017-09-27T20:05:54.302Z,101121.41
2017-09-27T20:08:20.534Z,101123.39
2017-09-27T20:10:46.769Z,101116.52
2017-09-27T20:13:13.024Z,101119.97
2017-09-27T20:15:39.258Z,101116.84
2017-09-27T20:18:05.485Z,101119.25
2017-09-27T20:20:31.733Z,101119.77
2017-09-27T20:22:57.934Z,101119.87
2017-09-27T20:25:24.147Z,101117.06
2017-09-27T20:27:50.436Z,101123.30
2017-09-27T20:30:16.641Z,101119.45
2017-09-27T20:32:42.830Z,101124.64
2017-09-27T20:35:09.115Z,101121.94
2017-09-27T20:37:35.340Z,101122.56
2017-09-27T20:40:01.566Z,101119.45
2017-09-27T20:42:27.866Z,101122.63
2017-09-27T20:44:54.096Z,101123.05
2017-09-27T20:47:20.321Z,101125.58
2017-09-27T20:49:46.576Z,101129.41
2017-09-27T20:52:12.837Z,101123.05
2017-09-27T20:54:39.075Z,101119.65
2017-09-27T20:57:05.322Z,101119.02
2017-09-27T20:59:31.530Z,101116.32
2017-09-27T21:01:57.781Z,101120.48
2017-09-27T21:04:24.055Z,101119.70
2017-09-27T21:06:50.295Z,101115.86
2017-09-27T21:09:16.504Z,101115.18
2017-09-27T21:11:42.857Z,101116.22
2017-09-27T21:14:09.090Z,101117.77
2017-09-27T21:16:35.305Z,101106.78
2017-09-27T21:19:01.747Z,101105.31
2017-09-27T21:21:27.973Z,101109.36
2017-09-27T21:23:54.193Z,101112.80
2017-09-27T21:26:20.461Z,101112.29
2017-09-27T21:28:46.701Z,101111.98
2017-09-27T21:31:12.931Z,101117.16
2017-09-27T21:33:39.263Z,101110.09
2017-09-27T21:36:05.500Z,101115.09
2017-09-27T21:38:31.714Z,101118.08
2017-09-27T21:40:57.970Z,101118.72
2017-09-27T21:43:24.233Z,101113.02
2017-09-27T21:45:50.486Z,101124.20
2017-09-27T21:48:16.749Z,101125.14
2017-09-27T21:50:42.969Z,101110.70
2017-09-27T21:53:09.204Z,101120.05
2017-09-27T21:55:35.528Z,101111.02
2017-09-27T21:58:01.757Z,101115.16
2017-09-27T22:00:27.989Z,101113.41
2017-09-27T22:02:54.259Z,101116.41
2017-09-27T22:05:20.478Z,101116.92
2017-09-27T22:07:46.701Z,101118.53
2017-09-27T22:10:12.966Z,101114.02
2017-09-27T22:12:39.191Z,101118.14
2017-09-27T22:15:05.492Z,101104.27
2017-09-27T22:17:31.761Z,101110.32
2017-09-27T22:19:57.988Z,101109.91
2017-09-27T22:22:24.212Z,101115.18
2017-09-27T22:24:50.506Z,101120.67
2017-09-27T22:27:16.726Z,101115.08
2017-09-27T22:29:42.948Z,101119.12
2017-09-27T22:32:09.207Z,101115.37
2017-09-27T22:34:35.455Z,101118.31
2017-09-27T22:37:01.700Z,101117.06
2017-09-27T22:39:27.956Z,101112.71
2017-09-27T22:41:54.198Z,101114.14
2017-09-27T22:44:20.421Z,101115.78
2017-09-27T22:46:46.707Z,101115.66
2017-09-27T22:49:12.956Z,101110.55
2017-09-27T22:51:39.191Z,101117.17
2017-09-27T22:54:05.456Z,101117.16
2017-09-27T22:56:31.672Z,101117.30
2017-09-27T22:58:57.891Z,101118.03
2017-09-27T23:01:24.172Z,101115.44
2017-09-27T23:03:50.425Z,101117.08
2017-09-27T23:06:16.664Z,101116.73
2017-09-27T23:08:42.957Z,101117.16
2017-09-27T23:11:09.204Z,101124.72
2017-09-27T23:13:35.453Z,101122.55
2017-09-27T23:16:01.747Z,101120.63
2017-09-27T23:18:27.974Z,101128.71
2017-09-27T23:20:54.206Z,101125.32
2017-09-27T23:23:26.671Z,101123.19
2017-09-27T23:25:52.901Z,101122.52
2017-09-27T23:28:19.138Z,101124.41
2017-09-27T23:30:46.731Z,101120.62
2017-09-27T23:33:12.973Z,101119.80
2017-09-27T23:35:39.216Z,101117.03
2017-09-27T23:38:05.497Z,101114.86
2017-09-27T23:40:31.737Z,101117.37
2017-09-27T23:42:57.969Z,101113.85
2017-09-27T23:45:24.252Z,101117.16
2017-09-27T23:47:50.458Z,101116.00
2017-09-27T23:50:16.692Z,101117.94
2017-09-27T23:52:42.933Z,101117.81
2017-09-27T23:55:09.147Z,101120.58
2017-09-27T23:57:35.361Z,101118.69
